This is the latest recevied weather packets stored in our database for station/object KG5WBN. If no packets are shown the sender has not sent any weather packets the latest 1 day(s).
| Time | Temp. | Humidity | Pressure | Rain* | Wind** | Luminosity | Snow |
|---|---|---|---|---|---|---|---|
| 1778030035 | 25° C | 62% | 1011.2 hPa | 0 mm | - | 0 W/m² | - |
| 1778029732 | 25° C | 62% | 1011.2 hPa | 0 mm | - | 0 W/m² | - |
| 1778029430 | 25° C | 61% | 1011.2 hPa | 0 mm | - | 0 W/m² | - |
| 1778029127 | 25° C | 60% | 1011.2 hPa | 0 mm | - | 0 W/m² | - |
| 1778028519 | 25° C | 59% | 1011.5 hPa | 0 mm | - | 0 W/m² | - |
| 1778027913 | 25° C | 57% | 1010.8 hPa | 0 mm | - | 0 W/m² | - |
| 1778027609 | 26.11° C | 56% | 1011.2 hPa | 0 mm | - | 2 W/m² | - |
| 1778027306 | 26.11° C | 55% | 1011.2 hPa | 0 mm | - | 5 W/m² | - |
| 1778027003 | 26.11° C | 55% | 1010.8 hPa | 0 mm | - | 11 W/m² | - |
| 1778026396 | 26.11° C | 54% | 1011.2 hPa | 0 mm | - | 18 W/m² | - |
| 1778023368 | 26.67° C | 48% | 1010.8 hPa | 0 mm | - | 45 W/m² | - |
| 1778023064 | 26.67° C | 48% | 1011.2 hPa | 0 mm | - | 41 W/m² | - |
| 1778021854 | 27.22° C | 45% | 1011.2 hPa | 0 mm | - | 93 W/m² | - |
| 1778018821 | 29.44° C | 39% | 1011.2 hPa | 0 mm | - | 232 W/m² | - |
| 1778018519 | 28.89° C | 40% | 1011.2 hPa | 0 mm | - | 116 W/m² | - |
| 1778018216 | 28.89° C | 42% | 1011.2 hPa | 0 mm | - | 299 W/m² | - |
| 1778017006 | 27.22° C | 44% | 1011.5 hPa | 0 mm | - | 104 W/m² | - |
| 1778016703 | 27.22° C | 42% | 1011.2 hPa | 0 mm | - | 117 W/m² | - |
| 1778011551 | 30° C | 35% | 1011.5 hPa | 0 mm | - | 350 W/m² | - |
| 1778010944 | 30° C | 35% | 1011.5 hPa | 0 mm | - | 257 W/m² | - |
| 1778010642 | 30° C | 35% | 1011.5 hPa | 0 mm | - | 346 W/m² | - |
| 1778010034 | 30° C | 34% | 1011.5 hPa | 0 mm | - | 423 W/m² | - |
| 1778009429 | 30° C | 35% | 1011.9 hPa | 0 mm | - | 305 W/m² | - |
| 1778009128 | 30.56° C | 34% | 1011.5 hPa | 0 mm | - | 376 W/m² | - |
* Rain latest hour (hover to see other rain measurements)
** Current wind speed in m/s (hover to see current wind gust speed)